Time;durP1;ratioP1;P1;durP2;ratioP2;P2;SDS_P1;SDS_P2;PMS_P1;PMS_P2;Temp;Humidity;BMP_temperature;BMP_pressure;BME280_temperature;BME280_humidity;BME280_pressure;Samples;Min_cycle;Max_cycle;Signal;HPM_P1;HPM_P2
2023/02/25 00:00:18;;;;;;;13.25;1.15;;;;;;;2.19;50.58;100243.38;4964171;28;20695;-72
2023/02/25 00:02:48;;;;;;;6.93;0.85;;;;;;;2.24;50.67;100243.31;4954263;28;20042;-75
2023/02/25 00:05:15;;;;;;;7.43;0.40;;;;;;;2.23;51.15;100245.03;4956975;28;20042;-74
2023/02/25 00:07:40;;;;;;;13.43;0.52;;;;;;;2.18;51.27;100246.84;4953334;28;20518;-72
2023/02/25 00:10:08;;;;;;;8.95;0.47;;;;;;;2.34;51.17;100243.13;4958578;28;20126;-75
2023/02/25 00:12:34;;;;;;;11.38;1.23;;;;;;;2.37;50.87;100243.97;4950194;28;20042;-74
2023/02/25 00:14:59;;;;;;;9.45;1.00;;;;;;;2.42;50.00;100240.47;4958426;28;20793;-68
2023/02/25 00:17:25;;;;;;;6.40;0.55;;;;;;;2.11;50.27;100252.97;4966562;28;20047;-70
2023/02/25 00:19:50;;;;;;;8.98;0.32;;;;;;;2.28;49.39;100243.22;4953786;28;20089;-70
2023/02/25 00:22:16;;;;;;;4.75;0.40;;;;;;;2.24;49.05;100240.72;4961823;28;20117;-69
2023/02/25 00:24:41;;;;;;;9.55;0.40;;;;;;;2.20;49.23;100239.06;4953327;28;20630;-68
2023/02/25 00:27:07;;;;;;;6.65;0.82;;;;;;;2.39;48.66;100245.66;4963988;28;20031;-69
2023/02/25 00:29:33;;;;;;;5.40;0.45;;;;;;;2.50;48.51;100246.31;4954468;28;20622;-69
2023/02/25 00:32:00;;;;;;;6.47;1.15;;;;;;;2.65;48.45;100249.53;4960346;28;20038;-68
2023/02/25 00:34:27;;;;;;;6.28;0.63;;;;;;;2.25;49.12;100252.75;4955178;28;20105;-69
2023/02/25 00:36:54;;;;;;;2.53;0.50;;;;;;;2.30;48.74;100256.13;4963619;28;20125;-71
2023/02/25 00:39:20;;;;;;;8.80;0.55;;;;;;;2.16;49.05;100253.75;4958426;28;20042;-71
2023/02/25 00:41:45;;;;;;;9.30;0.30;;;;;;;2.34;48.94;100250.88;4970818;28;20444;-70
2023/02/25 00:44:11;;;;;;;3.75;0.50;;;;;;;2.53;49.11;100255.72;4949431;28;20101;-70
2023/02/25 00:46:37;;;;;;;6.43;0.55;;;;;;;2.59;48.68;100263.38;4957422;28;20031;-70
2023/02/25 00:49:02;;;;;;;9.88;1.15;;;;;;;2.64;48.77;100264.16;4959736;28;20086;-70
2023/02/25 00:51:30;;;;;;;6.22;0.35;;;;;;;2.70;48.98;100265.78;4945542;28;20026;-69
2023/02/25 00:53:55;;;;;;;5.30;0.77;;;;;;;2.44;49.16;100263.63;4965320;28;20039;-68
2023/02/25 00:56:23;;;;;;;7.07;0.35;;;;;;;2.54;48.82;100278.09;4960882;28;20038;-69
2023/02/25 00:58:50;;;;;;;7.28;0.60;;;;;;;2.67;49.11;100266.69;4938630;28;20564;-69
2023/02/25 01:01:20;;;;;;;6.32;0.85;;;;;;;2.69;48.71;100280.44;4935561;28;20102;-69
2023/02/25 01:03:46;;;;;;;5.60;0.32;;;;;;;2.60;48.71;100283.16;4954365;28;20563;-68
2023/02/25 01:06:13;;;;;;;7.45;0.50;;;;;;;2.68;48.99;100278.69;4958908;28;20037;-69
2023/02/25 01:08:39;;;;;;;12.07;1.40;;;;;;;2.52;49.64;100277.25;4953560;28;20054;-69
2023/02/25 01:11:27;;;;;;;4.47;0.30;;;;;;;2.51;49.25;100275.53;4964988;28;20058;-68
2023/02/25 01:13:55;;;;;;;5.18;0.90;;;;;;;2.41;49.85;100280.00;4958842;28;20121;-76
2023/02/25 01:16:23;;;;;;;7.15;0.90;;;;;;;2.58;50.04;100282.34;4958277;28;20038;-79
2023/02/25 01:18:53;;;;;;;9.45;0.90;;;;;;;2.68;49.95;100277.84;4959506;28;20047;-77
2023/02/25 01:21:25;;;;;;;10.13;1.25;;;;;;;2.66;50.19;100282.19;4961075;28;20058;-76
2023/02/25 01:23:57;;;;;;;7.80;0.95;;;;;;;2.81;50.07;100284.53;4963298;28;20229;-78
2023/02/25 01:26:25;;;;;;;13.13;0.88;;;;;;;2.83;50.42;100289.66;4962526;28;20031;-73
2023/02/25 01:28:51;;;;;;;6.05;0.82;;;;;;;3.03;50.02;100290.16;4957376;28;20061;-73
2023/02/25 01:31:23;;;;;;;13.23;1.02;;;;;;;2.76;50.95;100288.91;4958945;28;20054;-77
2023/02/25 01:33:50;;;;;;;9.07;1.15;;;;;;;2.76;51.15;100287.19;4932623;28;20051;-77
2023/02/25 01:36:15;;;;;;;6.68;0.45;;;;;;;2.68;51.40;100289.03;4952071;28;20049;-76
2023/02/25 01:38:41;;;;;;;8.70;0.95;;;;;;;2.78;51.39;100294.91;4958418;28;20126;-78
2023/02/25 01:41:07;;;;;;;12.50;0.40;;;;;;;2.39;52.22;100304.13;4967537;28;20066;-80
2023/02/25 01:43:33;;;;;;;7.65;0.43;;;;;;;2.33;52.94;100311.09;4961696;28;20146;-80
2023/02/25 01:45:59;;;;;;;15.82;0.98;;;;;;;2.24;53.11;100308.66;4955941;28;20119;-79
2023/02/25 01:48:36;;;;;;;7.55;0.40;;;;;;;2.47;52.28;100310.03;4947996;28;20035;-78
2023/02/25 01:51:08;;;;;;;8.90;1.25;;;;;;;2.29;52.41;100312.00;4945536;28;20082;-76
2023/02/25 01:53:39;;;;;;;10.13;0.40;;;;;;;2.30;52.05;100321.44;4943582;28;20066;-76
2023/02/25 01:56:06;;;;;;;9.15;0.60;;;;;;;2.32;51.85;100322.25;4925908;28;20062;-75
2023/02/25 01:58:33;;;;;;;5.60;0.30;;;;;;;2.25;52.26;100319.81;4944426;28;20047;-76
2023/02/25 02:00:59;;;;;;;5.90;1.05;;;;;;;2.27;52.03;100320.63;4954582;28;20055;-72
2023/02/25 02:03:29;;;;;;;11.23;0.98;;;;;;;2.25;52.03;100325.81;4941350;28;20058;-72
2023/02/25 02:06:14;;;;;;;6.70;0.43;;;;;;;2.38;51.96;100330.78;4944515;28;20101;-72
2023/02/25 02:08:43;;;;;;;15.88;1.20;;;;;;;2.29;51.88;100332.63;4937215;28;20085;-72
2023/02/25 02:11:08;;;;;;;6.18;0.20;;;;;;;2.47;51.62;100335.81;4937829;28;20050;-71
2023/02/25 02:13:37;;;;;;;9.75;0.38;;;;;;;2.22;52.37;100330.16;4935599;28;20054;-72
2023/02/25 02:16:27;;;;;;;7.97;0.40;;;;;;;2.31;52.21;100330.88;4940727;28;20042;-72
2023/02/25 02:18:57;;;;;;;6.03;0.50;;;;;;;2.44;51.99;100335.84;4935677;28;20530;-72
2023/02/25 02:21:53;;;;;;;5.40;0.95;;;;;;;2.61;51.93;100335.59;4942371;28;20030;-72
2023/02/25 02:24:36;;;;;;;5.75;0.75;;;;;;;2.49;51.91;100334.91;4944491;28;20085;-72
2023/02/25 02:27:20;;;;;;;13.70;0.35;;;;;;;2.24;52.70;100339.59;4931247;28;20090;-72
2023/02/25 02:29:45;;;;;;;6.93;0.55;;;;;;;2.16;52.85;100341.41;4943096;28;20031;-72
2023/02/25 02:32:14;;;;;;;13.30;0.93;;;;;;;2.26;52.37;100344.69;4941381;28;20401;-74
2023/02/25 02:35:16;;;;;;;10.45;0.75;;;;;;;2.23;51.96;100343.03;4934824;28;20097;-72
2023/02/25 02:38:20;;;;;;;2.10;0.10;;;;;;;2.07;51.45;100350.13;4931783;28;20077;-72
2023/02/25 02:40:58;;;;;;;11.98;0.43;;;;;;;2.07;50.87;100352.69;4931839;28;20481;-72
2023/02/25 02:43:35;;;;;;;3.47;0.25;;;;;;;1.97;51.77;100350.25;4947849;28;20038;-72
2023/02/25 02:46:12;;;;;;;9.50;0.60;;;;;;;1.98;51.69;100351.97;4962279;28;20105;-72
2023/02/25 02:48:46;;;;;;;15.20;1.10;;;;;;;2.46;50.50;100349.56;4943497;28;20092;-73
2023/02/25 02:51:21;;;;;;;6.68;1.55;;;;;;;2.27;50.68;100367.91;4988892;28;20444;-77
2023/02/25 02:53:54;;;;;;;9.77;1.02;;;;;;;2.44;50.74;100366.81;4987498;28;20085;-77
2023/02/25 02:56:23;;;;;;;11.50;0.47;;;;;;;2.26;50.99;100358.44;4958062;28;20122;-76
2023/02/25 02:59:05;;;;;;;6.95;0.75;;;;;;;2.29;49.98;100368.75;4944538;28;20043;-76
2023/02/25 03:01:45;;;;;;;11.48;0.82;;;;;;;2.27;49.92;100372.22;4925285;28;20042;-76
2023/02/25 03:04:16;;;;;;;3.28;0.35;;;;;;;2.08;49.87;100379.31;4952684;28;20129;-75
2023/02/25 03:06:46;;;;;;;4.90;0.55;;;;;;;2.03;50.20;100373.38;4938231;28;20035;-76
2023/02/25 03:09:18;;;;;;;3.03;0.30;;;;;;;2.20;49.92;100379.19;4953831;28;20132;-70
2023/02/25 03:11:45;;;;;;;2.80;0.45;;;;;;;2.02;50.22;100382.84;4950674;28;20043;-72
2023/02/25 03:14:12;;;;;;;4.90;0.32;;;;;;;1.89;50.94;100389.88;4943204;28;20043;-71
2023/02/25 03:16:45;;;;;;;7.80;0.45;;;;;;;2.10;50.44;100391.31;4932123;28;20118;-74
2023/02/25 03:19:22;;;;;;;9.90;0.20;;;;;;;1.83;51.03;100392.50;4937291;28;20223;-74
2023/02/25 03:21:53;;;;;;;3.55;0.57;;;;;;;1.69;51.34;100402.13;4941087;28;20065;-74
2023/02/25 03:24:27;;;;;;;0.55;0.10;;;;;;;2.02;50.24;100405.16;4951197;28;20416;-72
2023/02/25 03:26:54;;;;;;;4.65;0.68;;;;;;;2.13;50.12;100401.59;4937096;28;20042;-75
2023/02/25 03:29:24;;;;;;;3.47;0.10;;;;;;;2.11;50.07;100411.09;4943375;28;20027;-75
2023/02/25 03:32:00;;;;;;;10.55;0.22;;;;;;;1.92;50.48;100413.00;4935764;28;20459;-76
2023/02/25 03:34:42;;;;;;;7.35;0.30;;;;;;;1.73;50.06;100427.00;4923556;28;20046;-75
2023/02/25 03:37:14;;;;;;;6.95;0.30;;;;;;;1.71;49.41;100426.16;4947553;28;20106;-77
2023/02/25 03:39:45;;;;;;;3.70;0.52;;;;;;;1.82;49.46;100428.59;4944991;28;20038;-76
2023/02/25 03:42:15;;;;;;;2.08;0.10;;;;;;;2.16;48.32;100435.97;4943712;28;20492;-73
2023/02/25 03:44:46;;;;;;;2.17;0.30;;;;;;;1.85;49.06;100434.56;4939913;28;20169;-70
2023/02/25 03:47:13;;;;;;;1.45;0.50;;;;;;;1.72;49.60;100441.56;4944286;28;20085;-78
2023/02/25 03:49:49;;;;;;;3.10;0.20;;;;;;;1.85;49.07;100438.88;4963388;28;20034;-81
2023/02/25 03:52:19;;;;;;;4.63;0.30;;;;;;;1.67;49.30;100448.50;4951839;28;20062;-80
2023/02/25 03:54:51;;;;;;;3.03;0.10;;;;;;;1.50;49.92;100452.97;4962584;28;20221;-79
2023/02/25 03:57:18;;;;;;;5.03;0.63;;;;;;;1.55;49.98;100466.66;4948640;28;20572;-80
2023/02/25 03:59:44;;;;;;;4.53;0.20;;;;;;;1.77;49.58;100464.72;4950388;28;20401;-80
2023/02/25 04:02:12;;;;;;;6.50;0.40;;;;;;;1.81;49.54;100471.56;4951039;28;20134;-75
2023/02/25 04:04:38;;;;;;;6.45;0.22;;;;;;;1.69;49.84;100463.97;4944552;28;20031;-78
2023/02/25 04:07:03;;;;;;;3.05;0.73;;;;;;;1.58;50.47;100460.63;4948859;28;20514;-75
2023/02/25 04:09:29;;;;;;;5.10;0.30;;;;;;;1.82;49.42;100462.09;4955616;28;20419;-73
2023/02/25 04:11:55;;;;;;;5.60;0.10;;;;;;;1.60;50.29;100470.06;4929731;28;20121;-73
2023/02/25 04:14:23;;;;;;;7.32;0.10;;;;;;;1.72;49.65;100463.91;4947367;28;20085;-75
2023/02/25 04:16:48;;;;;;;4.95;0.45;;;;;;;1.72;50.07;100464.75;4954482;28;20043;-80
2023/02/25 04:19:14;;;;;;;3.78;0.10;;;;;;;1.58;50.50;100481.25;4938878;28;20114;-80
2023/02/25 04:21:42;;;;;;;8.82;0.45;;;;;;;1.58;50.56;100484.66;4949593;28;20039;-82
2023/02/25 04:24:08;;;;;;;7.22;0.20;;;;;;;1.68;50.41;100481.13;4945634;28;20109;-80
2023/02/25 04:26:34;;;;;;;6.68;0.65;;;;;;;1.74;50.12;100480.22;4941082;28;20480;-79
2023/02/25 04:29:00;;;;;;;1.52;0.20;;;;;;;1.50;50.05;100495.00;4974907;28;20042;-79
2023/02/25 04:31:26;;;;;;;4.38;0.50;;;;;;;1.35;49.99;100495.13;4975321;28;20031;-79
2023/02/25 04:33:51;;;;;;;3.08;0.25;;;;;;;1.65;48.98;100498.34;4969467;28;20047;-78
2023/02/25 04:36:27;;;;;;;3.58;0.30;;;;;;;1.60;48.87;100498.38;4960659;28;20395;-75
2023/02/25 04:38:54;;;;;;;3.53;0.30;;;;;;;1.72;48.56;100493.09;4982747;28;20057;-80
2023/02/25 04:41:19;;;;;;;7.57;0.15;;;;;;;1.72;48.54;100497.41;4966877;28;20039;-75
2023/02/25 04:43:45;;;;;;;5.70;0.28;;;;;;;1.85;48.27;100505.88;4943939;28;20137;-74
2023/02/25 04:46:11;;;;;;;3.55;0.20;;;;;;;1.90;47.93;100510.13;4947819;28;20070;-75
2023/02/25 04:48:38;;;;;;;2.88;0.40;;;;;;;1.87;48.42;100514.47;4985054;28;20037;-75
2023/02/25 04:51:04;;;;;;;9.73;0.50;;;;;;;1.56;49.60;100517.31;4947067;28;20049;-80
2023/02/25 04:53:30;;;;;;;2.38;0.10;;;;;;;1.58;49.76;100517.31;4969334;28;20038;-79
2023/02/25 04:55:56;;;;;;;6.70;0.32;;;;;;;1.71;49.13;100522.34;4959100;28;20034;-80
2023/02/25 04:58:21;;;;;;;5.63;0.30;;;;;;;1.82;48.93;100521.34;4959910;28;20058;-71
2023/02/25 05:00:47;;;;;;;4.45;0.50;;;;;;;2.01;48.53;100516.91;4957728;28;20125;-71
2023/02/25 05:03:12;;;;;;;8.95;0.20;;;;;;;1.93;48.47;100517.84;4956132;28;20149;-75
2023/02/25 05:05:37;;;;;;;3.90;0.30;;;;;;;1.95;48.15;100522.94;4962545;28;20150;-76
2023/02/25 05:08:03;;;;;;;4.18;0.28;;;;;;;2.00;48.41;100525.47;4961125;28;20050;-76
2023/02/25 05:10:28;;;;;;;7.63;0.70;;;;;;;1.86;48.61;100530.78;4964591;28;20030;-76
2023/02/25 05:12:55;;;;;;;2.75;0.32;;;;;;;1.94;48.22;100519.53;4958474;28;20038;-77
2023/02/25 05:15:21;;;;;;;5.70;0.82;;;;;;;1.87;48.36;100524.78;4964327;28;20130;-76
2023/02/25 05:17:47;;;;;;;3.83;0.20;;;;;;;1.90;48.57;100523.00;4957512;28;20467;-76
2023/02/25 05:20:13;;;;;;;7.30;0.40;;;;;;;1.73;48.91;100528.31;4962634;28;20092;-76
2023/02/25 05:22:40;;;;;;;5.55;0.52;;;;;;;1.88;48.30;100545.34;4962179;28;20046;-76
2023/02/25 05:25:07;;;;;;;8.18;1.92;;;;;;;1.03;50.75;100547.66;4971540;28;20061;-76
2023/02/25 05:27:33;;;;;;;3.65;0.45;;;;;;;0.38;53.21;100559.09;4958217;28;20092;-76
2023/02/25 05:30:01;;;;;;;2.60;0.17;;;;;;;0.11;53.95;100552.31;4953637;28;20038;-75
2023/02/25 05:32:28;;;;;;;1.92;0.20;;;;;;;0.06;53.93;100552.31;4959601;28;20042;-75
2023/02/25 05:34:54;;;;;;;3.67;0.30;;;;;;;0.18;53.85;100544.59;4958089;28;20034;-75
2023/02/25 05:37:19;;;;;;;2.72;0.32;;;;;;;0.04;54.37;100541.19;4960450;28;20149;-75
2023/02/25 05:39:45;;;;;;;1.58;0.32;;;;;;;0.18;53.89;100542.00;4956941;28;20039;-69
2023/02/25 05:42:10;;;;;;;4.85;0.30;;;;;;;0.33;53.50;100540.28;4964284;28;20244;-69
2023/02/25 05:44:36;;;;;;;10.20;0.57;;;;;;;0.26;53.27;100545.44;4943848;28;20049;-69
2023/02/25 05:47:01;;;;;;;7.35;0.35;;;;;;;0.44;53.00;100548.81;4957902;28;20524;-69
2023/02/25 05:49:26;;;;;;;1.00;0.45;;;;;;;0.12;53.36;100554.88;4965664;28;20081;-69
2023/02/25 05:51:52;;;;;;;5.97;0.60;;;;;;;0.41;51.98;100551.38;4965183;28;21100;-72
2023/02/25 05:54:17;;;;;;;8.50;0.98;;;;;;;0.41;51.60;100556.50;4950171;28;20779;-77
2023/02/25 05:56:43;;;;;;;5.43;0.20;;;;;;;0.44;51.20;100564.25;4955844;28;20027;-78
2023/02/25 05:59:10;;;;;;;5.40;0.28;;;;;;;0.43;51.00;100567.66;4963582;28;20035;-76
2023/02/25 06:01:36;;;;;;;1.23;0.20;;;;;;;0.20;51.56;100576.28;4958232;28;20138;-72
2023/02/25 06:04:01;;;;;;;6.40;0.52;;;;;;;0.51;50.83;100581.34;4960444;28;20054;-74
2023/02/25 06:06:28;;;;;;;16.02;0.75;;;;;;;0.48;50.33;100582.22;4957382;28;20491;-73
2023/02/25 06:08:54;;;;;;;7.05;0.30;;;;;;;0.25;50.73;100584.81;4956140;28;20045;-73
2023/02/25 06:11:25;;;;;;;5.80;1.13;;;;;;;0.16;49.48;100586.56;4956145;28;20042;-75
2023/02/25 06:13:53;;;;;;;4.78;0.50;;;;;;;0.14;48.57;100596.84;4973349;28;20062;-75
2023/02/25 06:16:19;;;;;;;5.93;0.52;;;;;;;-0.10;47.99;100604.56;4963712;28;20038;-74
2023/02/25 06:18:45;;;;;;;2.90;0.47;;;;;;;0.12;47.57;100610.56;4957121;28;20090;-70
2023/02/25 06:21:13;;;;;;;2.67;0.30;;;;;;;-0.20;47.32;100612.28;4955777;28;20039;-72
2023/02/25 06:23:40;;;;;;;3.30;0.35;;;;;;;-0.09;45.98;100624.28;4953350;28;20039;-72
2023/02/25 06:26:06;;;;;;;9.38;0.43;;;;;;;-0.16;46.12;100619.13;4959089;28;20034;-76
2023/02/25 06:28:32;;;;;;;4.35;0.63;;;;;;;-0.08;45.56;100632.00;4956634;28;20056;-80
2023/02/25 06:30:58;;;;;;;1.27;0.00;;;;;;;-0.02;45.18;100621.69;4965028;28;20062;-74
2023/02/25 06:33:23;;;;;;;10.00;0.40;;;;;;;-0.21;44.48;100630.28;4960961;28;20053;-77
2023/02/25 06:35:51;;;;;;;2.85;0.30;;;;;;;-0.04;43.95;100623.41;4966639;28;20101;-70
2023/02/25 06:38:16;;;;;;;5.47;0.73;;;;;;;0.25;43.21;100635.38;4961134;28;20054;-73
2023/02/25 06:40:42;;;;;;;14.00;0.98;;;;;;;0.17;44.44;100648.25;4973404;28;20127;-74
2023/02/25 06:43:07;;;;;;;8.88;0.68;;;;;;;0.37;44.18;100639.69;4954160;28;20042;-73
2023/02/25 06:45:33;;;;;;;8.10;0.63;;;;;;;0.54;43.86;100645.63;4960006;28;20042;-73
2023/02/25 06:47:58;;;;;;;7.57;0.85;;;;;;;0.01;45.04;100649.97;4953832;28;20189;-74
2023/02/25 06:50:24;;;;;;;5.68;0.65;;;;;;;0.69;44.27;100657.59;4955475;28;21069;-72
2023/02/25 06:52:49;;;;;;;4.18;0.57;;;;;;;0.31;45.25;100655.97;4953232;28;20656;-76
2023/02/25 06:55:14;;;;;;;6.80;0.40;;;;;;;0.31;44.84;100666.25;4985315;28;20391;-73
2023/02/25 06:57:40;;;;;;;6.13;0.25;;;;;;;0.49;44.56;100675.66;4955863;28;20574;-80
2023/02/25 07:00:06;;;;;;;12.68;0.38;;;;;;;0.40;44.13;100671.38;4970246;28;20484;-74
2023/02/25 07:02:32;;;;;;;1.95;0.50;;;;;;;0.10;44.02;100677.41;4954888;28;20053;-75
2023/02/25 07:04:59;;;;;;;5.00;0.20;;;;;;;0.30;43.69;100692.81;4957430;28;20043;-76
2023/02/25 07:07:24;;;;;;;3.28;0.20;;;;;;;0.44;42.76;100696.22;4967234;28;20055;-73
2023/02/25 07:09:50;;;;;;;0.73;0.10;;;;;;;0.60;42.28;100684.19;4979154;28;20733;-77
2023/02/25 07:12:15;;;;;;;1.85;0.17;;;;;;;0.43;41.29;100696.22;4968389;28;20042;-77
2023/02/25 07:14:41;;;;;;;2.35;0.13;;;;;;;0.40;40.70;100706.53;4949358;28;20260;-74
2023/02/25 07:17:06;;;;;;;7.80;0.32;;;;;;;-0.00;41.63;100696.22;4973258;28;20448;-75
2023/02/25 07:19:32;;;;;;;3.00;0.10;;;;;;;0.24;41.50;100701.38;4960122;28;20169;-75
2023/02/25 07:21:57;;;;;;;5.20;0.10;;;;;;;0.38;41.64;100711.66;4961402;28;20142;-77
2023/02/25 07:24:23;;;;;;;4.38;0.30;;;;;;;0.89;41.02;100711.59;4960710;28;20562;-76
2023/02/25 07:26:49;;;;;;;5.05;0.30;;;;;;;0.81;41.68;100729.59;4990646;28;20086;-78
2023/02/25 07:29:14;;;;;;;2.75;0.65;;;;;;;0.73;41.89;100725.34;4972187;28;20098;-77
2023/02/25 07:31:40;;;;;;;6.38;0.73;;;;;;;0.42;42.60;100726.22;4963090;28;20395;-75
2023/02/25 07:34:05;;;;;;;13.55;1.02;;;;;;;0.56;41.96;100723.63;4991148;28;20049;-77
2023/02/25 07:36:36;;;;;;;5.13;1.85;;;;;;;0.42;42.38;100748.53;4957669;28;20043;-72
2023/02/25 07:39:05;;;;;;;5.57;0.17;;;;;;;0.28;43.21;100743.38;4955894;28;20134;-72
2023/02/25 07:41:31;;;;;;;7.80;0.38;;;;;;;0.52;42.20;100741.66;4955042;28;20045;-71
2023/02/25 07:44:01;;;;;;;5.70;0.30;;;;;;;0.51;42.61;100763.09;4971155;28;20593;-72
2023/02/25 07:46:28;;;;;;;2.47;0.20;;;;;;;0.50;39.78;100759.63;4954889;28;20153;-72
2023/02/25 07:48:54;;;;;;;1.25;0.10;;;;;;;0.23;36.92;100758.81;4957476;28;20034;-70
2023/02/25 07:51:22;;;;;;;1.25;0.25;;;;;;;0.47;37.51;100760.50;4955843;28;20038;-71
2023/02/25 07:53:49;;;;;;;3.35;0.20;;;;;;;1.98;35.56;100749.78;4940403;28;20176;-72
2023/02/25 07:56:16;;;;;;;1.27;0.15;;;;;;;2.73;35.08;100772.44;4941989;28;20039;-72
2023/02/25 07:58:42;;;;;;;1.00;0.22;;;;;;;4.55;32.11;100768.41;4954935;28;20058;-72
2023/02/25 08:01:15;;;;;;;2.63;0.47;;;;;;;3.88;33.28;100767.69;4955694;28;20034;-72
2023/02/25 08:03:40;;;;;;;0.70;0.17;;;;;;;4.41;31.41;100772.97;4953973;28;20710;-72
2023/02/25 08:06:07;;;;;;;1.98;0.10;;;;;;;4.53;30.15;100764.13;4969766;28;20031;-72
2023/02/25 08:08:34;;;;;;;1.67;0.10;;;;;;;5.59;27.99;100767.34;4952159;28;20328;-72
2023/02/25 08:11:04;;;;;;;0.38;0.25;;;;;;;6.23;26.80;100775.47;4961040;28;20066;-72
2023/02/25 08:13:29;;;;;;;2.15;0.47;;;;;;;5.83;27.27;100778.97;4952577;28;20097;-71
2023/02/25 08:15:55;;;;;;;2.55;0.03;;;;;;;5.28;27.29;100790.44;4961082;28;20775;-72
2023/02/25 08:18:21;;;;;;;1.45;0.00;;;;;;;5.09;28.17;100789.97;4951952;28;20918;-72
2023/02/25 08:20:47;;;;;;;2.17;0.20;;;;;;;4.76;28.92;100798.25;4972357;28;20035;-73
2023/02/25 08:23:12;;;;;;;1.35;0.10;;;;;;;4.96;29.79;100791.91;4954489;28;20348;-73
2023/02/25 08:25:38;;;;;;;1.92;0.10;;;;;;;5.91;27.93;100810.78;4951485;28;20041;-74
2023/02/25 08:28:06;;;;;;;2.60;0.28;;;;;;;5.69;27.87;100806.94;4955824;28;20042;-73
2023/02/25 08:30:32;;;;;;;4.32;0.35;;;;;;;5.52;28.61;100800.34;4956360;28;20104;-72
2023/02/25 08:32:57;;;;;;;2.08;0.20;;;;;;;5.69;28.46;100814.72;4958013;28;20060;-73
2023/02/25 08:35:27;;;;;;;2.67;0.20;;;;;;;5.18;29.76;100813.94;4957116;28;20607;-72
2023/02/25 08:37:53;;;;;;;2.35;0.17;;;;;;;5.53;29.40;100820.22;4953656;28;20527;-73
2023/02/25 08:40:19;;;;;;;1.50;0.10;;;;;;;5.23;29.86;100824.22;4956942;28;20065;-71
2023/02/25 08:42:45;;;;;;;4.97;0.35;;;;;;;5.14;30.36;100827.00;4953230;28;20246;-72
2023/02/25 08:45:11;;;;;;;0.73;0.10;;;;;;;5.03;26.81;100828.06;4953032;28;20053;-72
2023/02/25 08:47:37;;;;;;;0.80;0.00;;;;;;;5.12;27.46;100833.94;4953646;28;20038;-73
2023/02/25 08:50:04;;;;;;;0.80;0.38;;;;;;;5.35;27.43;100833.53;4964801;28;20041;-72
2023/02/25 08:52:32;;;;;;;4.18;0.30;;;;;;;4.57;28.92;100841.72;4955953;28;20038;-73
2023/02/25 08:55:00;;;;;;;1.33;0.00;;;;;;;5.38;28.36;100842.09;4940828;28;20054;-73
2023/02/25 08:57:26;;;;;;;6.40;1.02;;;;;;;4.94;29.47;100854.09;4985434;28;20718;-73
2023/02/25 08:59:51;;;;;;;2.83;0.47;;;;;;;4.80;30.44;100863.81;4956410;28;20543;-72
2023/02/25 09:02:16;;;;;;;4.32;0.25;;;;;;;4.55;30.81;100869.34;4956367;28;20074;-73
2023/02/25 09:04:42;;;;;;;2.28;0.25;;;;;;;4.84;31.06;100881.00;4956663;28;20267;-72
2023/02/25 09:07:07;;;;;;;1.08;0.10;;;;;;;5.07;31.44;100888.41;4955628;28;20038;-73
2023/02/25 09:09:33;;;;;;;2.80;0.30;;;;;;;3.79;32.93;100900.53;4954642;28;20277;-73
2023/02/25 09:11:59;;;;;;;1.17;0.10;;;;;;;3.90;33.04;100900.41;4964439;28;20092;-72
2023/02/25 09:14:25;;;;;;;1.42;0.17;;;;;;;3.31;33.51;100914.81;4951416;28;20037;-72
2023/02/25 09:16:50;;;;;;;3.75;0.30;;;;;;;2.33;34.54;100921.47;4955863;28;20272;-73
2023/02/25 09:19:17;;;;;;;1.85;0.20;;;;;;;2.04;35.07;100919.03;4954229;28;20035;-72
2023/02/25 09:21:43;;;;;;;2.95;0.30;;;;;;;1.92;35.42;100941.41;4953390;28;20451;-73
2023/02/25 09:24:09;;;;;;;1.63;0.32;;;;;;;1.80;35.94;100950.91;4955185;28;20085;-73
2023/02/25 09:26:35;;;;;;;1.02;0.20;;;;;;;2.50;35.11;100947.19;4954356;28;20046;-71
2023/02/25 09:29:03;;;;;;;2.00;0.10;;;;;;;1.49;35.81;100962.13;4955797;28;20129;-71
2023/02/25 09:31:29;;;;;;;1.02;0.10;;;;;;;1.55;35.65;100950.97;4953929;28;20052;-73
2023/02/25 09:33:55;;;;;;;4.80;1.25;;;;;;;2.31;35.92;100970.50;4955970;28;20047;-72
2023/02/25 09:36:21;;;;;;;4.82;0.20;;;;;;;2.20;34.89;100977.44;4968692;28;20467;-73
2023/02/25 09:38:48;;;;;;;1.75;0.47;;;;;;;1.31;35.71;100969.81;4955501;28;20144;-73
2023/02/25 09:41:29;;;;;;;5.90;0.43;;;;;;;0.71;36.89;100981.75;4955011;28;20037;-72
2023/02/25 09:44:07;;;;;;;1.17;0.22;;;;;;;2.14;35.46;100996.34;4954070;28;20052;-74
2023/02/25 09:46:36;;;;;;;3.95;0.10;;;;;;;2.03;34.72;101004.97;4967961;28;20034;-73
2023/02/25 09:49:10;;;;;;;1.65;0.10;;;;;;;2.65;34.39;101001.31;4971172;28;20074;-72
2023/02/25 09:51:39;;;;;;;2.20;0.17;;;;;;;2.90;33.40;101002.03;4954251;28;20084;-72
2023/02/25 09:54:30;;;;;;;1.30;0.10;;;;;;;2.56;33.98;101002.22;4987303;28;20054;-71
2023/02/25 09:57:00;;;;;;;6.72;0.45;;;;;;;2.46;34.19;101010.84;4955941;28;20104;-73
2023/02/25 09:59:28;;;;;;;1.40;0.13;;;;;;;2.17;34.44;101021.25;4967318;28;20039;-73
2023/02/25 10:02:16;;;;;;;0.57;0.20;;;;;;;2.51;35.30;101010.81;4947773;28;20038;-72
2023/02/25 10:05:00;;;;;;;2.80;0.10;;;;;;;2.63;34.26;101013.38;4953078;28;20031;-72
2023/02/25 10:07:34;;;;;;;2.60;0.55;;;;;;;2.75;33.36;101017.59;4952161;28;20500;-73
2023/02/25 10:10:08;;;;;;;4.57;0.10;;;;;;;3.00;33.98;101020.91;4955365;28;20537;-72
2023/02/25 10:12:38;;;;;;;1.15;0.05;;;;;;;2.45;34.63;101018.63;4951119;28;20069;-72
2023/02/25 10:15:22;;;;;;;6.25;1.00;;;;;;;2.95;33.95;101020.94;4951286;28;20749;-73
2023/02/25 10:18:21;;;;;;;7.75;0.45;;;;;;;3.33;33.18;101021.56;4940768;28;20364;-73
2023/02/25 10:21:08;;;;;;;2.40;0.57;;;;;;;2.73;33.68;101033.13;4954246;28;20050;-73
2023/02/25 10:23:40;;;;;;;5.13;0.55;;;;;;;3.29;33.32;101025.03;4950581;28;20069;-71
2023/02/25 10:26:06;;;;;;;5.27;0.47;;;;;;;2.71;33.75;101032.25;4952135;28;20035;-71
2023/02/25 10:28:34;;;;;;;4.00;0.32;;;;;;;2.55;33.33;101043.50;4951894;28;20352;-73
2023/02/25 10:31:07;;;;;;;3.78;0.75;;;;;;;2.98;33.09;101043.31;4960015;28;20604;-75
2023/02/25 10:33:36;;;;;;;7.57;0.30;;;;;;;3.29;33.47;101025.03;4934916;28;20061;-73
2023/02/25 10:36:13;;;;;;;1.25;0.20;;;;;;;3.63;33.81;101040.28;4969684;28;20050;-71
2023/02/25 10:38:52;;;;;;;6.28;0.65;;;;;;;3.71;33.07;101051.44;4957580;28;20749;-72
2023/02/25 10:41:21;;;;;;;4.03;0.32;;;;;;;3.74;32.84;101049.69;4952252;28;20386;-71
2023/02/25 10:43:48;;;;;;;2.90;0.20;;;;;;;4.05;32.59;101040.75;4966806;28;20042;-74
2023/02/25 10:46:24;;;;;;;1.55;0.10;;;;;;;3.58;33.62;101050.66;4944728;28;20034;-72
2023/02/25 10:48:56;;;;;;;2.95;0.60;;;;;;;3.87;32.69;101054.72;4943830;28;20077;-72
2023/02/25 10:51:24;;;;;;;4.20;0.20;;;;;;;3.16;32.38;101058.69;4956913;28;20038;-72
2023/02/25 10:53:55;;;;;;;7.07;0.13;;;;;;;3.92;33.05;101051.25;4954838;28;20127;-71
2023/02/25 10:56:23;;;;;;;2.67;0.25;;;;;;;3.87;32.46;101055.59;4951001;28;20078;-69
2023/02/25 10:59:03;;;;;;;3.20;0.20;;;;;;;3.16;33.12;101050.94;4952944;28;20042;-69
2023/02/25 11:01:41;;;;;;;1.55;0.30;;;;;;;3.05;33.34;101064.78;4957697;28;20678;-69
2023/02/25 11:04:13;;;;;;;2.47;0.47;;;;;;;3.63;32.87;101058.38;4956972;28;20054;-70
2023/02/25 11:06:41;;;;;;;1.67;0.17;;;;;;;3.57;32.02;101061.88;4950076;28;20031;-70
2023/02/25 11:09:34;;;;;;;7.45;0.30;;;;;;;3.62;33.46;101064.44;4954403;28;20039;-70
2023/02/25 11:12:18;;;;;;;4.53;0.15;;;;;;;3.50;33.14;101066.25;4951244;28;20046;-69
2023/02/25 11:14:43;;;;;;;7.63;0.22;;;;;;;3.77;34.16;101074.66;4951057;28;20097;-70
2023/02/25 11:17:11;;;;;;;5.20;0.20;;;;;;;3.93;32.36;101076.22;4954753;28;20039;-70
2023/02/25 11:20:01;;;;;;;2.70;0.20;;;;;;;3.79;32.47;101083.25;4950750;28;20044;-70
2023/02/25 11:22:42;;;;;;;1.77;0.20;;;;;;;3.80;31.31;101064.28;4948782;28;20048;-70
2023/02/25 11:25:17;;;;;;;0.82;0.10;;;;;;;3.89;32.13;101077.13;4954548;28;20038;-69
2023/02/25 11:27:49;;;;;;;0.40;0.10;;;;;;;4.06;31.73;101089.06;4938757;28;20379;-70
2023/02/25 11:30:19;;;;;;;1.70;0.20;;;;;;;4.22;32.45;101093.19;4954276;28;20036;-70
2023/02/25 11:32:52;;;;;;;2.25;0.30;;;;;;;4.73;31.27;101090.91;4940777;28;20051;-71
2023/02/25 11:35:39;;;;;;;4.70;0.32;;;;;;;4.07;31.73;101103.69;4958166;28;20140;-69
2023/02/25 11:38:25;;;;;;;3.55;0.10;;;;;;;4.25;31.27;101102.66;4946614;28;20074;-70
2023/02/25 11:40:51;;;;;;;2.83;0.40;;;;;;;4.02;30.66;101102.00;4936829;28;20102;-69